Berlin Township, New Jersey
Current Conditions -  °F | °C
As of 4:54 AM on Sunday 23 Nov 2014 (Local Time) from KVAY Reporting Station
Broken Clouds Broken Clouds  
Wind Chill: 38°   Ceiling: 11000
Heat Index: 38°   Visibility: 10mi
Dew Point: 23°   Wind: 3mph
Humidity: 55%   Direction: 220°SW
Pressure: 30.22"   Gusts: NA
Location:  39.8119°N, 74.9426°W
Report Text: KVAY 230954Z AUTO 22003KT 10SM BKN110 03/M05 A3022 RMK AO2 SLP233 T00331050
Loading
Personal Weather Stations






























Interactive Weather Map New forecast layout! Learn more

10-Day Weather Forecast

Advertisements
Track Severe Weather on mobile